createdAt,value
2023-05-05T00:00:25.135Z,68.0008
2023-05-05T00:01:33.511Z,67.9589
2023-05-05T00:02:41.534Z,68.1395
2023-05-05T00:03:49.629Z,68.2696
2023-05-05T00:04:57.613Z,68.4718
2023-05-05T00:06:05.649Z,68.5320
2023-05-05T00:07:13.661Z,68.7571
2023-05-05T00:08:21.754Z,69.0362
2023-05-05T00:09:29.757Z,69.1029
2023-05-05T00:10:37.860Z,69.5242
2023-05-05T00:11:45.892Z,69.6455
2023-05-05T00:12:53.851Z,69.3273
2023-05-05T00:14:01.885Z,68.9738
2023-05-05T00:15:09.916Z,68.6349
2023-05-05T00:16:18.103Z,68.5822
2023-05-05T00:17:26.299Z,68.1730
2023-05-05T00:18:34.252Z,67.8728
2023-05-05T00:19:42.343Z,67.6103
2023-05-05T00:20:50.368Z,67.4112
2023-05-05T00:21:58.400Z,67.3727
2023-05-05T00:23:06.472Z,67.5393
2023-05-05T00:24:14.711Z,67.6116
2023-05-05T00:25:22.644Z,67.6637
2023-05-05T00:26:30.606Z,68.0339
2023-05-05T00:27:40.236Z,68.2690
2023-05-05T00:28:51.488Z,68.5415
2023-05-05T00:29:59.832Z,68.8672
2023-05-05T00:31:07.865Z,68.9074
2023-05-05T00:32:15.824Z,69.0555
2023-05-05T00:33:23.919Z,69.1135
2023-05-05T00:34:31.955Z,69.2629
2023-05-05T00:35:39.976Z,69.4489
2023-05-05T00:36:48.061Z,69.3500
2023-05-05T00:37:56.157Z,69.3752
2023-05-05T00:39:04.234Z,69.3816
2023-05-05T00:40:12.246Z,69.7099
2023-05-05T00:41:20.171Z,69.9778
2023-05-05T00:42:28.217Z,70.4481
2023-05-05T00:43:36.273Z,71.0077
2023-05-05T00:44:44.715Z,71.0041
2023-05-05T00:45:52.520Z,71.2486
2023-05-05T00:47:00.770Z,70.9162
2023-05-05T00:48:08.796Z,70.7324
2023-05-05T00:49:16.851Z,70.6459
2023-05-05T00:50:24.773Z,70.6773
2023-05-05T00:51:32.852Z,70.8238
2023-05-05T00:52:40.996Z,70.7803
2023-05-05T00:53:48.990Z,70.5922
2023-05-05T00:54:57.053Z,70.5970
2023-05-05T00:56:04.960Z,70.5977
2023-05-05T00:57:13.029Z,70.4388
2023-05-05T00:58:21.100Z,70.0811
2023-05-05T00:59:29.305Z,69.9871
2023-05-05T01:00:37.334Z,69.9251
2023-05-05T01:01:45.399Z,70.0545
2023-05-05T01:02:53.588Z,70.2388
2023-05-05T01:04:01.742Z,70.0796
2023-05-05T01:05:09.585Z,70.0381
2023-05-05T01:06:17.677Z,69.9839
2023-05-05T01:07:25.695Z,70.0177
2023-05-05T01:08:33.779Z,69.8424
2023-05-05T01:09:41.869Z,69.7055
2023-05-05T01:10:49.756Z,69.6736
2023-05-05T01:11:57.813Z,69.5873
2023-05-05T01:13:05.961Z,69.4994
2023-05-05T01:14:14.087Z,69.3300
2023-05-05T01:15:22.139Z,69.0754
2023-05-05T01:16:30.199Z,68.9127
2023-05-05T01:17:38.309Z,68.8337
2023-05-05T01:18:46.319Z,68.6547
2023-05-05T01:19:54.611Z,68.4266
2023-05-05T01:21:02.508Z,68.3580
2023-05-05T01:22:10.631Z,68.2246
2023-05-05T01:23:18.628Z,68.1987
2023-05-05T01:24:26.771Z,68.2320
2023-05-05T01:25:34.618Z,68.0778
2023-05-05T01:26:42.680Z,67.9892
2023-05-05T01:27:50.721Z,68.0962
2023-05-05T01:28:58.945Z,68.0400
2023-05-05T01:30:07.304Z,68.0927
2023-05-05T01:31:15.080Z,68.1194
2023-05-05T01:32:23.114Z,68.1321
2023-05-05T01:33:31.151Z,68.1432
2023-05-05T01:34:39.207Z,68.2390
2023-05-05T01:35:47.474Z,68.4148
2023-05-05T01:36:55.337Z,68.4883
2023-05-05T01:38:03.402Z,68.3876
2023-05-05T01:39:11.466Z,68.3069
2023-05-05T01:40:19.447Z,68.2907
2023-05-05T01:41:27.416Z,68.2810
2023-05-05T01:42:35.538Z,68.2749
2023-05-05T01:43:43.754Z,68.3332
2023-05-05T01:44:51.792Z,68.4058
2023-05-05T01:45:59.873Z,68.4243
2023-05-05T01:47:07.923Z,68.5892
2023-05-05T01:48:15.939Z,68.6748
2023-05-05T01:49:23.990Z,68.9777
2023-05-05T01:50:32.086Z,69.1873
2023-05-05T01:51:40.117Z,69.4163
2023-05-05T01:52:48.290Z,69.5703
2023-05-05T01:53:56.323Z,69.6756
2023-05-05T01:55:04.168Z,69.7139
2023-05-05T01:56:12.206Z,69.6980
2023-05-05T01:57:20.276Z,69.7349
2023-05-05T01:58:28.472Z,69.7209
2023-05-05T01:59:36.504Z,69.8136
2023-05-05T02:00:44.794Z,69.7493
2023-05-05T02:01:52.644Z,69.6393
2023-05-05T02:03:00.725Z,69.5342
2023-05-05T02:04:08.737Z,69.5279
2023-05-05T02:05:16.948Z,69.5862
2023-05-05T02:06:24.887Z,69.6708
2023-05-05T02:07:32.928Z,69.6327
2023-05-05T02:08:41.232Z,69.7989
2023-05-05T02:09:48.970Z,69.9797
2023-05-05T02:10:57.018Z,69.9324
2023-05-05T02:12:05.103Z,69.7398
2023-05-05T02:13:13.384Z,69.6295
2023-05-05T02:14:21.304Z,69.4245
2023-05-05T02:15:29.426Z,69.2160
2023-05-05T02:16:37.637Z,69.3084
2023-05-05T02:17:45.551Z,69.3358
2023-05-05T02:18:53.562Z,68.9515
2023-05-05T02:20:01.714Z,68.9438
2023-05-05T02:21:09.695Z,69.0035
2023-05-05T02:22:17.720Z,68.9545
2023-05-05T02:23:25.892Z,68.8959
2023-05-05T02:24:33.728Z,68.7008
2023-05-05T02:25:41.806Z,68.5543
2023-05-05T02:26:49.846Z,68.1011
2023-05-05T02:27:58.055Z,67.7640
2023-05-05T02:29:06.070Z,67.6644
2023-05-05T02:30:14.207Z,67.6007
2023-05-05T02:31:22.209Z,67.6884
2023-05-05T02:32:30.464Z,67.4493
2023-05-05T02:33:38.320Z,67.2859
2023-05-05T02:34:46.374Z,67.2464
2023-05-05T02:35:54.480Z,67.1609
2023-05-05T02:37:02.484Z,67.2284
2023-05-05T02:38:10.639Z,67.0862
2023-05-05T02:39:18.484Z,67.0377
2023-05-05T02:40:26.563Z,67.0510
2023-05-05T02:41:34.642Z,67.1515
2023-05-05T02:42:42.709Z,67.1653
2023-05-05T02:43:50.752Z,67.1393
2023-05-05T02:44:58.958Z,67.0929
2023-05-05T02:46:07.058Z,67.1329
2023-05-05T02:47:15.040Z,67.2285
2023-05-05T02:48:23.138Z,67.2938
2023-05-05T02:49:31.294Z,67.5364
2023-05-05T02:50:39.299Z,67.6502
2023-05-05T02:51:47.315Z,67.5527
2023-05-05T02:52:55.364Z,67.4583
2023-05-05T02:54:03.366Z,67.4714
2023-05-05T02:55:11.594Z,67.5606
2023-05-05T02:56:19.452Z,67.7309
2023-05-05T02:57:27.444Z,67.8925
2023-05-05T02:58:35.547Z,67.8643
2023-05-05T02:59:43.756Z,67.9317
2023-05-05T03:00:51.827Z,67.9575
2023-05-05T03:01:59.909Z,68.0510
2023-05-05T03:03:07.918Z,68.2400
2023-05-05T03:04:15.950Z,68.3297
2023-05-05T03:05:23.995Z,68.1646
2023-05-05T03:06:32.121Z,68.0974
2023-05-05T03:07:40.148Z,67.9822
2023-05-05T03:08:48.188Z,67.8456
2023-05-05T03:09:56.272Z,67.8144
2023-05-05T03:11:04.258Z,67.7335
2023-05-05T03:12:12.261Z,67.7447
2023-05-05T03:13:20.356Z,67.8612
2023-05-05T03:14:29.583Z,68.1249
2023-05-05T03:15:41.510Z,68.2186
2023-05-05T03:16:49.560Z,68.1253
2023-05-05T03:17:57.670Z,68.1915
2023-05-05T03:19:05.662Z,68.2991
2023-05-05T03:20:13.703Z,68.2374
2023-05-05T03:21:21.921Z,68.5189
2023-05-05T03:22:29.848Z,68.6155
2023-05-05T03:23:37.843Z,68.5784
2023-05-05T03:24:45.776Z,68.8012
2023-05-05T03:25:53.873Z,68.7849
2023-05-05T03:27:01.964Z,68.8380
2023-05-05T03:28:10.112Z,68.8726
2023-05-05T03:29:18.198Z,68.8926
2023-05-05T03:30:26.285Z,68.7979
2023-05-05T03:31:34.362Z,68.7796
2023-05-05T03:32:42.358Z,68.6695
2023-05-05T03:33:50.438Z,68.6266
2023-05-05T03:34:58.636Z,68.4039
2023-05-05T03:36:06.544Z,68.1992
2023-05-05T03:37:14.800Z,68.9229
2023-05-05T03:38:22.627Z,69.4048
2023-05-05T03:39:30.576Z,69.0597
2023-05-05T03:40:44.127Z,68.8604
2023-05-05T03:41:51.764Z,69.1374
2023-05-05T03:42:59.793Z,69.1288
2023-05-05T03:44:07.855Z,69.0817
2023-05-05T03:45:16.049Z,69.2812
2023-05-05T03:46:23.969Z,69.5133
2023-05-05T03:47:32.005Z,69.5936
2023-05-05T03:48:40.042Z,69.8970
2023-05-05T03:49:48.126Z,70.4050
2023-05-05T03:50:56.154Z,70.8064
2023-05-05T03:52:04.248Z,71.1053
2023-05-05T03:53:12.165Z,71.4429
2023-05-05T03:54:20.206Z,71.7102
2023-05-05T03:55:28.270Z,71.8163
2023-05-05T03:56:36.513Z,71.9920
2023-05-05T03:57:44.526Z,72.2149
2023-05-05T03:58:52.579Z,72.4596
2023-05-05T04:00:00.648Z,72.6292
2023-05-05T04:01:08.697Z,72.6091
2023-05-05T04:02:18.630Z,72.6134
2023-05-05T04:03:29.707Z,72.9152
2023-05-05T04:04:37.697Z,72.9390
2023-05-05T04:05:45.761Z,73.0072
2023-05-05T04:06:53.788Z,73.1732
2023-05-05T04:08:01.794Z,73.2650
2023-05-05T04:09:09.818Z,73.4120
2023-05-05T04:10:18.040Z,73.4790
2023-05-05T04:11:26.141Z,73.5640
2023-05-05T04:12:34.225Z,73.8347
2023-05-05T04:13:42.452Z,73.7772
2023-05-05T04:14:50.314Z,73.8561
2023-05-05T04:15:58.467Z,73.9049
2023-05-05T04:17:06.374Z,73.9282
2023-05-05T04:18:14.465Z,74.0907
2023-05-05T04:19:22.539Z,74.1443
2023-05-05T04:20:30.528Z,74.2287
2023-05-05T04:21:38.564Z,74.3245
2023-05-05T04:22:46.602Z,74.4482
2023-05-05T04:23:54.620Z,74.5186
2023-05-05T04:25:02.768Z,74.7709
2023-05-05T04:26:10.856Z,74.9427
2023-05-05T04:27:18.931Z,75.0439
2023-05-05T04:28:27.064Z,75.1904
2023-05-05T04:29:35.104Z,75.1443
2023-05-05T04:30:43.131Z,75.0304
2023-05-05T04:31:51.249Z,75.2163
2023-05-05T04:32:59.321Z,75.3740
2023-05-05T04:34:07.385Z,75.3277
2023-05-05T04:35:15.341Z,75.2730
2023-05-05T04:36:23.288Z,75.3287
2023-05-05T04:37:31.386Z,75.3929
2023-05-05T04:38:39.407Z,75.3591
2023-05-05T04:39:47.528Z,75.2696
2023-05-05T04:40:55.621Z,75.2821
2023-05-05T04:42:03.683Z,75.4847
2023-05-05T04:43:11.811Z,75.6440
2023-05-05T04:44:19.794Z,75.7966
2023-05-05T04:45:27.825Z,75.6845
2023-05-05T04:46:35.918Z,75.4256
2023-05-05T04:47:44.131Z,75.4343
2023-05-05T04:48:52.123Z,75.4554
2023-05-05T04:50:00.125Z,75.3948
2023-05-05T04:51:08.077Z,75.4284
2023-05-05T04:52:16.140Z,75.4705
2023-05-05T04:53:24.212Z,75.5106
2023-05-05T04:54:32.337Z,75.4941
2023-05-05T04:55:40.357Z,75.5025
2023-05-05T04:56:48.403Z,75.4898
2023-05-05T04:57:56.558Z,75.5435
2023-05-05T04:59:04.548Z,75.5052
2023-05-05T05:00:12.576Z,75.6456
2023-05-05T05:01:20.664Z,75.6706
2023-05-05T05:02:28.774Z,75.5224
2023-05-05T05:03:36.864Z,75.2422
2023-05-05T05:04:44.865Z,74.9007
2023-05-05T05:05:52.967Z,74.7284
2023-05-05T05:07:00.855Z,74.2876
2023-05-05T05:08:08.974Z,73.9228
2023-05-05T05:09:17.157Z,74.0993
2023-05-05T05:10:25.186Z,74.5307
2023-05-05T05:11:33.237Z,74.8407
2023-05-05T05:12:41.288Z,75.0517
2023-05-05T05:13:49.386Z,75.2804
2023-05-05T05:14:57.512Z,75.4576
2023-05-05T05:16:05.582Z,75.6015
2023-05-05T05:17:13.456Z,75.7614
2023-05-05T05:18:21.596Z,75.7807
2023-05-05T05:19:29.693Z,75.5309
2023-05-05T05:20:37.546Z,75.3120
2023-05-05T05:21:45.628Z,75.0832
2023-05-05T05:22:53.711Z,75.0256
2023-05-05T05:24:01.789Z,74.7706
2023-05-05T05:25:09.913Z,74.5279
2023-05-05T05:26:17.974Z,74.2722
2023-05-05T05:27:26.010Z,74.2265
2023-05-05T05:28:34.209Z,74.1035
2023-05-05T05:29:42.187Z,74.1228
2023-05-05T05:30:50.249Z,74.0588
2023-05-05T05:31:58.392Z,74.0602
2023-05-05T05:33:06.437Z,73.8465
2023-05-05T05:34:14.463Z,73.5792
2023-05-05T05:35:22.405Z,73.3006
2023-05-05T05:36:30.472Z,73.1231
2023-05-05T05:37:38.573Z,73.0032
2023-05-05T05:38:46.605Z,73.0786
2023-05-05T05:39:54.710Z,73.0478
2023-05-05T05:41:02.854Z,72.9593
2023-05-05T05:42:10.841Z,72.8603
2023-05-05T05:43:18.983Z,72.8242
2023-05-05T05:44:27.001Z,72.7928
2023-05-05T05:45:35.228Z,72.8420
2023-05-05T05:46:43.151Z,72.7527
2023-05-05T05:47:51.363Z,72.5527
2023-05-05T05:48:59.327Z,72.4404
2023-05-05T05:50:07.438Z,72.3949
2023-05-05T05:51:15.222Z,72.1868
2023-05-05T05:52:23.265Z,71.9618
2023-05-05T05:53:31.517Z,71.8263
2023-05-05T05:54:39.380Z,71.6531
2023-05-05T05:55:47.719Z,71.4530
2023-05-05T05:56:55.580Z,71.1688
2023-05-05T05:58:03.720Z,70.8040
2023-05-05T05:59:11.786Z,70.5732
2023-05-05T06:00:19.763Z,70.4229
2023-05-05T06:01:27.840Z,70.2728
2023-05-05T06:02:35.934Z,69.9895
2023-05-05T06:03:44.046Z,69.7938
2023-05-05T06:04:51.927Z,69.6635
2023-05-05T06:05:59.976Z,69.5298
2023-05-05T06:07:08.006Z,69.4228
2023-05-05T06:08:16.171Z,69.2947
2023-05-05T06:09:24.330Z,69.3167
2023-05-05T06:10:32.524Z,69.3234
2023-05-05T06:11:45.258Z,69.1604
2023-05-05T06:12:53.652Z,69.2914
2023-05-05T06:14:01.414Z,69.2511
2023-05-05T06:15:09.397Z,69.1759
2023-05-05T06:16:17.538Z,69.1507
2023-05-05T06:17:25.497Z,69.2455
2023-05-05T06:18:33.547Z,69.4766
2023-05-05T06:19:41.535Z,69.6849
2023-05-05T06:20:49.609Z,70.0179
2023-05-05T06:21:57.908Z,69.7793
2023-05-05T06:23:05.872Z,69.8471
2023-05-05T06:24:13.912Z,69.7819
2023-05-05T06:25:21.981Z,69.5633
2023-05-05T06:26:30.003Z,69.3835
2023-05-05T06:27:38.022Z,69.1613
2023-05-05T06:28:46.112Z,69.3481
2023-05-05T06:29:54.250Z,69.4827
2023-05-05T06:31:02.303Z,69.6688
2023-05-05T06:32:10.286Z,69.6013
2023-05-05T06:33:18.244Z,69.1908
2023-05-05T06:34:26.295Z,68.6744
2023-05-05T06:35:34.388Z,68.3449
2023-05-05T06:36:42.466Z,68.0407
2023-05-05T06:37:50.607Z,68.0468
2023-05-05T06:38:58.618Z,68.5163
2023-05-05T06:40:06.861Z,68.4991
2023-05-05T06:41:14.826Z,68.1529
2023-05-05T06:42:22.827Z,67.9061
2023-05-05T06:43:30.938Z,67.6726
2023-05-05T06:44:38.906Z,67.3852
2023-05-05T06:45:47.212Z,67.1486
2023-05-05T06:46:55.088Z,66.6422
2023-05-05T06:48:03.059Z,66.2642
2023-05-05T06:49:11.050Z,65.9487
2023-05-05T06:50:19.103Z,65.4216
2023-05-05T06:51:27.364Z,65.0468
2023-05-05T06:52:35.412Z,65.1620
2023-05-05T06:53:43.405Z,65.0465
2023-05-05T06:54:51.507Z,64.8081
2023-05-05T06:55:59.518Z,64.4961
2023-05-05T06:57:07.565Z,64.3268
2023-05-05T06:58:15.614Z,64.1125
2023-05-05T06:59:23.681Z,63.9205
2023-05-05T07:00:31.736Z,63.9544
2023-05-05T07:01:39.880Z,64.2358
2023-05-05T07:02:47.771Z,65.3182
2023-05-05T07:03:55.877Z,66.5887
2023-05-05T07:05:03.896Z,66.8014
2023-05-05T07:06:12.009Z,66.2571
2023-05-05T07:07:20.147Z,65.8064
2023-05-05T07:08:28.190Z,65.2219
2023-05-05T07:09:36.304Z,65.5336
2023-05-05T07:10:44.296Z,65.9954
2023-05-05T07:11:52.397Z,65.2923
2023-05-05T07:13:00.444Z,64.9326
2023-05-05T07:14:08.438Z,65.2415
2023-05-05T07:15:27.614Z,65.5754
2023-05-05T07:16:29.372Z,65.1450
2023-05-05T07:17:37.383Z,64.6161
2023-05-05T07:18:45.432Z,64.2659
2023-05-05T07:19:53.753Z,64.2032
2023-05-05T07:21:01.630Z,64.1599
2023-05-05T07:22:09.637Z,64.5461
2023-05-05T07:23:17.849Z,64.8723
2023-05-05T07:24:25.803Z,64.4247
2023-05-05T07:25:33.948Z,63.9590
2023-05-05T07:26:42.004Z,63.7006
2023-05-05T07:27:50.063Z,63.6477
2023-05-05T07:28:58.082Z,64.1918
2023-05-05T07:30:10.057Z,64.0752
2023-05-05T07:31:18.927Z,64.2055
2023-05-05T07:32:27.096Z,64.0303
2023-05-05T07:33:35.074Z,63.5582
2023-05-05T07:34:43.271Z,63.8763
2023-05-05T07:35:51.399Z,63.5524
2023-05-05T07:36:59.410Z,63.5753
2023-05-05T07:38:08.719Z,64.0485
2023-05-05T07:39:20.332Z,64.2748
2023-05-05T07:40:28.371Z,64.1862
2023-05-05T07:41:36.462Z,64.3637
2023-05-05T07:42:44.626Z,65.0833
2023-05-05T07:43:52.677Z,65.5076
2023-05-05T07:45:00.470Z,64.7315
2023-05-05T07:46:08.548Z,64.7890
2023-05-05T07:47:16.629Z,65.1551
2023-05-05T07:48:24.769Z,65.6847
2023-05-05T07:49:32.874Z,65.8924
2023-05-05T07:50:40.905Z,66.1686
2023-05-05T07:51:49.127Z,66.4822
2023-05-05T07:53:06.250Z,65.6122
2023-05-05T07:54:09.916Z,65.6786
2023-05-05T07:55:18.018Z,65.6839
2023-05-05T07:56:26.068Z,65.7092
2023-05-05T07:57:34.239Z,64.7703
2023-05-05T07:58:42.035Z,64.3802
2023-05-05T07:59:50.067Z,64.4833
2023-05-05T08:00:58.141Z,64.7593
2023-05-05T08:02:06.345Z,64.3291
2023-05-05T08:03:14.441Z,64.2270
2023-05-05T08:04:22.428Z,64.3023
2023-05-05T08:05:30.502Z,64.5243
2023-05-05T08:06:38.506Z,64.7099
2023-05-05T08:07:46.800Z,64.7475
2023-05-05T08:08:54.665Z,65.1308
2023-05-05T08:10:02.718Z,65.3368
2023-05-05T08:11:10.834Z,64.8917
2023-05-05T08:12:18.868Z,63.9506
2023-05-05T08:13:26.809Z,63.4407
2023-05-05T08:14:34.840Z,62.7720
2023-05-05T08:15:42.910Z,62.0145
2023-05-05T08:16:51.064Z,61.7266
2023-05-05T08:17:59.190Z,60.8181
2023-05-05T08:19:17.670Z,60.1905
2023-05-05T08:20:20.182Z,60.3338
2023-05-05T08:21:28.164Z,60.3559
2023-05-05T08:22:36.282Z,60.7011
2023-05-05T08:23:44.300Z,61.0010
2023-05-05T08:24:52.634Z,61.6655
2023-05-05T08:26:00.285Z,61.1389
2023-05-05T08:27:08.339Z,61.4470
2023-05-05T08:28:16.440Z,61.4685
2023-05-05T08:29:24.641Z,61.7169
2023-05-05T08:30:32.927Z,61.5344
2023-05-05T08:31:40.751Z,60.8524
2023-05-05T08:32:48.910Z,60.7091
2023-05-05T08:33:56.958Z,60.7022
2023-05-05T08:35:04.927Z,60.8719
2023-05-05T08:36:12.932Z,60.1313
2023-05-05T08:37:21.071Z,60.4880
2023-05-05T08:38:29.066Z,60.1308
2023-05-05T08:39:37.168Z,60.0193
2023-05-05T08:40:45.049Z,60.4358
2023-05-05T08:41:53.152Z,59.8337
2023-05-05T08:43:01.203Z,59.6404
2023-05-05T08:44:09.479Z,60.6233
2023-05-05T08:45:17.543Z,61.3580
2023-05-05T08:46:25.482Z,61.3171
2023-05-05T08:47:33.555Z,61.4674
2023-05-05T08:48:41.741Z,62.2074
2023-05-05T08:49:49.715Z,62.5714
2023-05-05T08:50:59.542Z,62.5250
2023-05-05T08:52:10.647Z,62.5562
2023-05-05T08:53:18.668Z,62.6849
2023-05-05T08:54:26.637Z,62.6527
2023-05-05T08:55:34.690Z,62.8215
2023-05-05T08:56:42.751Z,62.8992
2023-05-05T08:57:51.110Z,62.2257
2023-05-05T08:58:58.965Z,61.7102
2023-05-05T09:00:07.008Z,62.5298
2023-05-05T09:01:15.159Z,62.8786
2023-05-05T09:02:23.209Z,63.3740
2023-05-05T09:03:31.190Z,63.4057
2023-05-05T09:04:39.282Z,62.8349
2023-05-05T09:05:47.277Z,62.8277
2023-05-05T09:06:55.308Z,63.4466
2023-05-05T09:08:03.584Z,63.3357
2023-05-05T09:09:11.406Z,63.7280
2023-05-05T09:10:19.452Z,64.0905
2023-05-05T09:11:27.531Z,63.5432
2023-05-05T09:12:35.664Z,63.4734
2023-05-05T09:13:43.892Z,63.6655
2023-05-05T09:14:51.770Z,63.5669
2023-05-05T09:15:59.894Z,63.2576
2023-05-05T09:17:07.981Z,63.2447
2023-05-05T09:18:15.956Z,63.7142
2023-05-05T09:19:23.974Z,63.1277
2023-05-05T09:20:32.234Z,62.5120
2023-05-05T09:21:40.117Z,62.3668
2023-05-05T09:22:48.174Z,62.8654
2023-05-05T09:23:58.535Z,62.9305
2023-05-05T09:25:09.251Z,62.8636
2023-05-05T09:26:17.214Z,63.3797
2023-05-05T09:27:25.264Z,63.1482
2023-05-05T09:28:33.264Z,62.8752
2023-05-05T09:29:41.493Z,63.3321
2023-05-05T09:30:49.493Z,63.3419
2023-05-05T09:31:57.533Z,62.7111
2023-05-05T09:33:05.667Z,62.4452
2023-05-05T09:34:13.630Z,62.2096
2023-05-05T09:35:21.727Z,62.2120
2023-05-05T09:36:29.700Z,62.3899
2023-05-05T09:37:37.736Z,62.1682
2023-05-05T09:38:45.819Z,62.1672
2023-05-05T09:39:53.929Z,61.2106
2023-05-05T09:41:02.136Z,61.0646
2023-05-05T09:42:10.095Z,61.3458
2023-05-05T09:43:18.163Z,61.2672
2023-05-05T09:44:26.358Z,60.1014
2023-05-05T09:45:34.286Z,60.2764
2023-05-05T09:46:42.515Z,60.6934
2023-05-05T09:47:50.652Z,59.8578
2023-05-05T09:48:58.503Z,58.7694
2023-05-05T09:50:06.696Z,58.3972
2023-05-05T09:51:14.449Z,58.3956
2023-05-05T09:52:22.546Z,58.2562
2023-05-05T09:53:30.556Z,58.7958
2023-05-05T09:54:38.790Z,58.9607
2023-05-05T09:55:46.832Z,59.2695
2023-05-05T09:56:54.827Z,59.5154
2023-05-05T09:58:02.985Z,59.1631
2023-05-05T09:59:11.098Z,58.4968
2023-05-05T10:00:18.923Z,58.7025
2023-05-05T10:01:27.162Z,58.6639
2023-05-05T10:02:35.146Z,58.7010
2023-05-05T10:03:43.265Z,58.6802
2023-05-05T10:04:51.259Z,57.8925
2023-05-05T10:05:59.208Z,56.5759
2023-05-05T10:07:07.263Z,55.4488
2023-05-05T10:08:15.342Z,54.0219
2023-05-05T10:09:23.503Z,53.8657
2023-05-05T10:10:31.610Z,53.8629
2023-05-05T10:11:39.552Z,53.6948
2023-05-05T10:12:47.782Z,53.8245
2023-05-05T10:13:55.773Z,52.8431
2023-05-05T10:15:03.809Z,51.8186
2023-05-05T10:16:12.022Z,51.3847
2023-05-05T10:17:19.888Z,51.0251
2023-05-05T10:18:27.967Z,49.7744
2023-05-05T10:19:36.006Z,49.2095
2023-05-05T10:20:44.024Z,49.0538
2023-05-05T10:21:52.080Z,49.7886
2023-05-05T10:23:00.148Z,49.6406
2023-05-05T10:24:08.245Z,49.1918
2023-05-05T10:25:16.308Z,48.2876
2023-05-05T10:26:24.466Z,47.7144
2023-05-05T10:27:32.524Z,47.6137
2023-05-05T10:28:40.540Z,47.2898
2023-05-05T10:29:48.633Z,46.7216
2023-05-05T10:30:56.704Z,46.8307
2023-05-05T10:32:21.456Z,46.8284
2023-05-05T10:33:30.213Z,46.5709
2023-05-05T10:34:30.491Z,46.5486
2023-05-05T10:35:38.660Z,46.6633
2023-05-05T10:36:46.787Z,47.0048
2023-05-05T10:37:54.826Z,47.3050
2023-05-05T10:39:02.826Z,46.9564
2023-05-05T10:40:11.241Z,46.8063
2023-05-05T10:41:18.979Z,46.9177
2023-05-05T10:42:27.082Z,47.0650
2023-05-05T10:43:35.116Z,46.5727
2023-05-05T10:44:43.116Z,46.1385
2023-05-05T10:45:51.243Z,45.8059
2023-05-05T10:46:59.172Z,45.0841
2023-05-05T10:48:07.247Z,44.4363
2023-05-05T10:49:15.277Z,44.4234
2023-05-05T10:50:23.390Z,44.2845
2023-05-05T10:51:40.094Z,43.9334
2023-05-05T10:52:44.517Z,44.0059
2023-05-05T10:53:52.522Z,43.5217
2023-05-05T10:55:00.509Z,43.3283
2023-05-05T10:56:08.722Z,42.3175
2023-05-05T10:57:16.735Z,42.0093
2023-05-05T10:58:24.723Z,42.1863
2023-05-05T10:59:32.845Z,41.7957
2023-05-05T11:00:40.814Z,41.3485
2023-05-05T11:01:48.838Z,40.9985
2023-05-05T11:02:56.999Z,40.4417
2023-05-05T11:04:05.105Z,39.6229
2023-05-05T11:05:13.102Z,39.3612
2023-05-05T11:06:21.119Z,39.3658
2023-05-05T11:07:29.309Z,39.1524
2023-05-05T11:08:37.557Z,39.7321
2023-05-05T11:09:45.440Z,40.1059
2023-05-05T11:10:53.494Z,39.4795
2023-05-05T11:12:01.596Z,39.9350
2023-05-05T11:13:09.590Z,40.5722
2023-05-05T11:14:17.640Z,41.1002
2023-05-05T11:15:25.633Z,41.6224
2023-05-05T11:16:33.726Z,42.1018
2023-05-05T11:17:41.832Z,42.6990
2023-05-05T11:18:49.968Z,42.6671
2023-05-05T11:19:57.984Z,43.0748
2023-05-05T11:21:06.003Z,43.6260
2023-05-05T11:22:14.106Z,44.1320
2023-05-05T11:23:22.216Z,44.2505
2023-05-05T11:24:30.274Z,44.5996
2023-05-05T11:25:38.404Z,44.9897
2023-05-05T11:26:46.361Z,45.4507
2023-05-05T11:27:54.444Z,45.0635
2023-05-05T11:29:02.501Z,45.0858
2023-05-05T11:30:10.705Z,45.1354
2023-05-05T11:31:18.605Z,45.1461
2023-05-05T11:32:26.633Z,44.8503
2023-05-05T11:33:34.785Z,44.4589
2023-05-05T11:34:42.772Z,44.6560
2023-05-05T11:35:50.847Z,45.3604
2023-05-05T11:36:58.948Z,45.8409
2023-05-05T11:38:07.036Z,44.8086
2023-05-05T11:39:15.049Z,45.0012
2023-05-05T11:40:23.129Z,45.9342
2023-05-05T11:41:31.230Z,46.2672
2023-05-05T11:42:39.290Z,47.2432
2023-05-05T11:43:47.274Z,47.4146
2023-05-05T11:44:55.301Z,46.7594
2023-05-05T11:46:03.396Z,46.2688
2023-05-05T11:47:11.408Z,45.2628
2023-05-05T11:48:19.770Z,44.7469
2023-05-05T11:49:27.691Z,44.9782
2023-05-05T11:50:35.855Z,45.2450
2023-05-05T11:51:43.787Z,45.5900
2023-05-05T11:52:51.848Z,45.1680
2023-05-05T11:53:59.904Z,44.7473
2023-05-05T11:55:07.972Z,44.6384
2023-05-05T11:56:16.102Z,44.2678
2023-05-05T11:57:24.245Z,43.0019
2023-05-05T11:58:32.205Z,43.1355
2023-05-05T11:59:40.086Z,44.0818
2023-05-05T12:00:48.147Z,44.2985
2023-05-05T12:01:56.213Z,44.4237
2023-05-05T12:03:04.522Z,45.1631
2023-05-05T12:04:12.861Z,45.5396
2023-05-05T12:05:20.546Z,45.9246
2023-05-05T12:06:28.610Z,45.8471
2023-05-05T12:07:36.631Z,46.0220
2023-05-05T12:08:44.777Z,46.1183
2023-05-05T12:09:52.791Z,45.8006
2023-05-05T12:11:01.009Z,46.1279
2023-05-05T12:12:08.974Z,45.6768
2023-05-05T12:13:17.131Z,45.1589
2023-05-05T12:14:24.980Z,43.8315
2023-05-05T12:15:32.996Z,43.0539
2023-05-05T12:16:41.271Z,42.1496
2023-05-05T12:17:49.280Z,41.5918
2023-05-05T12:18:57.408Z,41.3073
2023-05-05T12:20:05.592Z,41.5037
2023-05-05T12:21:13.482Z,40.9721
2023-05-05T12:22:21.539Z,40.6219
2023-05-05T12:23:29.641Z,40.1157
2023-05-05T12:24:37.624Z,40.2778
2023-05-05T12:25:45.721Z,40.4331
2023-05-05T12:26:53.826Z,40.4148
2023-05-05T12:28:02.036Z,40.0792
2023-05-05T12:29:09.844Z,40.5765
2023-05-05T12:30:17.929Z,40.0495
2023-05-05T12:31:25.953Z,39.8268
2023-05-05T12:32:34.259Z,39.7276
2023-05-05T12:33:42.240Z,39.7351
2023-05-05T12:34:50.308Z,39.7488
2023-05-05T12:35:58.480Z,39.3542
2023-05-05T12:37:06.362Z,39.3396
2023-05-05T12:38:14.466Z,38.7913
2023-05-05T12:39:22.565Z,37.8551
2023-05-05T12:40:30.601Z,36.9673
2023-05-05T12:41:38.668Z,36.8576
2023-05-05T12:42:46.763Z,37.0791
2023-05-05T12:43:54.756Z,36.9281
2023-05-05T12:45:02.751Z,37.0813
2023-05-05T12:46:10.928Z,37.0722
2023-05-05T12:47:19.004Z,36.5172
2023-05-05T12:48:27.111Z,36.0002
2023-05-05T12:49:35.064Z,35.1187
2023-05-05T12:50:43.251Z,34.0350
2023-05-05T12:51:51.241Z,33.5995
2023-05-05T12:52:59.358Z,33.4634
2023-05-05T12:54:07.446Z,32.9065
2023-05-05T12:55:15.567Z,32.3982
2023-05-05T12:56:23.559Z,32.3576
2023-05-05T12:57:31.562Z,32.5290
2023-05-05T12:58:39.558Z,32.5523
2023-05-05T12:59:47.675Z,32.6176
2023-05-05T13:00:55.816Z,32.4980
2023-05-05T13:02:04.160Z,31.8164
2023-05-05T13:03:12.024Z,31.7304
2023-05-05T13:04:20.042Z,31.5675
2023-05-05T13:05:28.151Z,31.2759
2023-05-05T13:06:36.248Z,31.2423
2023-05-05T13:07:44.208Z,31.4557
2023-05-05T13:08:52.305Z,31.2603
2023-05-05T13:10:00.529Z,30.9156
2023-05-05T13:11:08.405Z,30.6255
2023-05-05T13:12:16.526Z,30.4789
2023-05-05T13:13:24.449Z,30.0475
2023-05-05T13:14:32.674Z,29.7257
2023-05-05T13:15:40.653Z,30.0638
2023-05-05T13:16:48.784Z,30.3363
2023-05-05T13:17:57.100Z,31.0139
2023-05-05T13:19:04.896Z,31.5789
2023-05-05T13:20:13.054Z,31.0882
2023-05-05T13:21:21.060Z,31.1321
2023-05-05T13:22:29.164Z,32.1142
2023-05-05T13:23:37.190Z,32.7696
2023-05-05T13:24:52.479Z,32.6451
2023-05-05T13:25:58.101Z,33.5388
2023-05-05T13:27:06.162Z,33.8375
2023-05-05T13:28:14.201Z,34.5582
2023-05-05T13:29:24.667Z,34.6272
2023-05-05T13:30:35.326Z,34.3805
2023-05-05T13:31:43.656Z,35.0368
2023-05-05T13:32:51.599Z,35.2352
2023-05-05T13:33:59.540Z,35.0110
2023-05-05T13:35:07.894Z,34.3174
2023-05-05T13:36:15.840Z,33.3564
2023-05-05T13:37:23.740Z,33.5439
2023-05-05T13:38:31.835Z,34.1859
2023-05-05T13:39:39.752Z,34.5216
2023-05-05T13:40:47.830Z,34.7567
2023-05-05T13:41:55.875Z,35.0601
2023-05-05T13:43:04.052Z,35.4200
2023-05-05T13:44:12.149Z,36.3068